Time;durP1;ratioP1;P1;durP2;ratioP2;P2;SDS_P1;SDS_P2;PMS_P1;PMS_P2;Temp;Humidity;BMP_temperature;BMP_pressure;BME280_temperature;BME280_humidity;BME280_pressure;Samples;Min_cycle;Max_cycle;Signal;HPM_P1;HPM_P2
2021/01/08 00:01:26;;;;;;;44.63;18.87;;;;;;;4.20;74.69;100664.22;4405515;32;20034;-74
2021/01/08 00:03:52;;;;;;;40.28;19.52;;;;;;;4.28;74.85;100660.25;4405801;32;20085;-75
2021/01/08 00:06:18;;;;;;;39.80;18.67;;;;;;;4.35;74.63;100667.81;4418706;32;20113;-75
2021/01/08 00:08:44;;;;;;;38.42;19.08;;;;;;;4.36;74.23;100661.84;4413301;32;20463;-74
2021/01/08 00:11:10;;;;;;;37.30;18.00;;;;;;;4.42;74.02;100660.22;4411307;32;20043;-74
2021/01/08 00:13:35;;;;;;;37.30;18.05;;;;;;;4.30;73.92;100663.44;4409917;32;20086;-76
2021/01/08 00:16:01;;;;;;;40.30;17.92;;;;;;;4.25;74.45;100661.03;4411364;32;20022;-77
2021/01/08 00:18:27;;;;;;;42.28;18.98;;;;;;;4.28;74.79;100659.44;4409793;32;20370;-76
2021/01/08 00:20:53;;;;;;;37.10;17.40;;;;;;;4.34;74.87;100649.50;4416972;32;20126;-75
2021/01/08 00:23:19;;;;;;;43.15;18.83;;;;;;;4.39;74.16;100666.63;4411080;32;20030;-74
2021/01/08 00:25:51;;;;;;;40.17;17.27;;;;;;;4.42;73.85;100651.09;4416852;32;20045;-77
2021/01/08 00:28:18;;;;;;;37.00;17.10;;;;;;;4.49;74.35;100659.44;4412953;32;20038;-76
2021/01/08 00:30:44;;;;;;;33.10;16.52;;;;;;;4.63;74.41;100657.41;4417696;32;20431;-76
2021/01/08 00:33:09;;;;;;;35.53;16.30;;;;;;;4.72;73.84;100651.44;4415748;32;20370;-76
2021/01/08 00:35:40;;;;;;;29.83;14.77;;;;;;;4.81;73.18;100647.03;4411100;32;20095;-75
2021/01/08 00:38:07;;;;;;;29.85;14.73;;;;;;;4.87;72.87;100648.22;4413243;32;20042;-75
2021/01/08 00:40:33;;;;;;;33.53;15.88;;;;;;;4.88;73.02;100652.59;4408502;32;20038;-75
2021/01/08 00:42:59;;;;;;;31.95;15.68;;;;;;;4.89;72.67;100648.62;4404571;32;20517;-75
2021/01/08 00:45:24;;;;;;;31.35;15.88;;;;;;;5.00;73.17;100649.38;4416280;32;20021;-75
2021/01/08 00:47:50;;;;;;;31.33;16.02;;;;;;;5.13;72.82;100644.16;4414764;32;20419;-74
2021/01/08 00:50:17;;;;;;;33.38;15.00;;;;;;;5.15;71.73;100645.34;4414195;32;20042;-74
2021/01/08 00:52:43;;;;;;;31.02;15.50;;;;;;;5.20;72.43;100650.50;4409667;32;20107;-75
2021/01/08 00:55:09;;;;;;;27.85;13.68;;;;;;;5.23;72.17;100655.28;4402768;32;20018;-75
2021/01/08 00:57:35;;;;;;;28.00;13.20;;;;;;;5.24;71.90;100654.06;4402002;32;20332;-74
2021/01/08 01:00:01;;;;;;;28.23;13.85;;;;;;;5.26;71.43;100651.69;4402273;32;20400;-75
2021/01/08 01:02:26;;;;;;;29.60;13.95;;;;;;;5.31;71.51;100645.66;4401172;32;20362;-76
2021/01/08 01:04:52;;;;;;;24.50;12.77;;;;;;;5.34;71.42;100658.81;4402042;32;20066;-76
2021/01/08 01:07:18;;;;;;;24.23;13.13;;;;;;;5.38;71.31;100651.22;4402241;32;20022;-74
2021/01/08 01:09:43;;;;;;;26.55;12.93;;;;;;;5.34;71.44;100649.66;4402855;32;20065;-77
2021/01/08 01:12:09;;;;;;;26.20;12.68;;;;;;;5.29;71.75;100641.69;4402751;32;20153;-75
2021/01/08 01:14:35;;;;;;;23.62;11.98;;;;;;;5.33;71.94;100640.47;4402937;32;20030;-76
2021/01/08 01:17:04;;;;;;;25.58;12.60;;;;;;;5.38;71.88;100640.06;4401849;32;20058;-75
2021/01/08 01:19:30;;;;;;;25.08;12.48;;;;;;;5.49;71.58;100660.34;4400266;32;20039;-75
2021/01/08 01:21:56;;;;;;;25.17;12.30;;;;;;;5.43;70.76;100648.00;4401228;32;20430;-76
2021/01/08 01:24:22;;;;;;;22.55;11.75;;;;;;;5.48;72.00;100657.94;4400960;32;20072;-76
2021/01/08 01:26:54;;;;;;;23.35;11.93;;;;;;;5.49;71.46;100651.97;4400730;32;20030;-77
2021/01/08 01:29:21;;;;;;;23.48;11.77;;;;;;;5.60;71.35;100652.72;4399771;32;20026;-76
2021/01/08 01:31:46;;;;;;;24.50;12.32;;;;;;;5.65;71.09;100652.28;4400270;32;20038;-77
2021/01/08 01:34:12;;;;;;;25.37;11.82;;;;;;;5.71;70.45;100652.66;4400020;32;20103;-76
2021/01/08 01:36:39;;;;;;;24.10;12.37;;;;;;;5.73;70.70;100648.25;4399563;32;20070;-74
2021/01/08 01:39:04;;;;;;;22.40;11.50;;;;;;;5.72;70.43;100652.25;4401425;32;20088;-76
2021/01/08 01:41:30;;;;;;;22.58;11.32;;;;;;;5.74;70.59;100658.19;4397249;32;20439;-77
2021/01/08 01:43:56;;;;;;;21.95;11.35;;;;;;;5.81;70.95;100661.00;4397159;32;20490;-77
2021/01/08 01:46:22;;;;;;;22.62;11.25;;;;;;;5.86;70.61;100648.59;4403670;32;20081;-75
2021/01/08 01:48:49;;;;;;;21.12;10.85;;;;;;;5.90;70.29;100649.38;4402425;32;20145;-78
2021/01/08 01:51:16;;;;;;;25.40;11.48;;;;;;;5.82;70.69;100654.19;4400611;32;20399;-77
2021/01/08 01:53:43;;;;;;;22.75;11.15;;;;;;;5.78;70.81;100659.00;4402465;32;20077;-76
2021/01/08 01:56:08;;;;;;;21.45;10.82;;;;;;;5.76;71.27;100652.22;4405298;32;20018;-77
2021/01/08 01:58:34;;;;;;;20.55;9.85;;;;;;;5.76;70.94;100658.59;4410971;32;20057;-75
2021/01/08 02:01:00;;;;;;;22.55;10.82;;;;;;;5.80;71.54;100651.00;4412808;32;20048;-75
2021/01/08 02:03:36;;;;;;;22.23;11.00;;;;;;;5.78;70.57;100653.41;4411456;32;20038;-75
2021/01/08 02:06:07;;;;;;;25.98;11.65;;;;;;;5.86;71.20;100656.97;4412708;32;20094;-77
2021/01/08 02:08:37;;;;;;;20.08;10.57;;;;;;;5.94;71.20;100656.53;4405545;32;20496;-74
2021/01/08 02:11:09;;;;;;;20.80;10.45;;;;;;;5.95;71.05;100657.28;4407295;32;20073;-76
2021/01/08 02:13:41;;;;;;;16.85;8.25;;;;;;;5.96;71.01;100664.50;4409881;32;20059;-77
2021/01/08 02:16:08;;;;;;;19.37;8.77;;;;;;;5.94;72.21;100659.31;4403767;32;20065;-74
2021/01/08 02:18:36;;;;;;;23.48;10.55;;;;;;;5.96;72.19;100653.31;4396894;32;20392;-77
2021/01/08 02:21:11;;;;;;;23.05;10.13;;;;;;;6.02;72.41;100655.25;4416929;32;20057;-77
2021/01/08 02:23:43;;;;;;;19.83;8.82;;;;;;;6.06;72.59;100647.66;4414053;32;20045;-78
2021/01/08 02:26:10;;;;;;;18.45;8.20;;;;;;;6.05;72.82;100648.84;4404188;32;20065;-74
2021/01/08 02:28:36;;;;;;;19.73;9.27;;;;;;;6.06;72.60;100653.25;4405248;32;20102;-76
2021/01/08 02:31:02;;;;;;;15.82;8.50;;;;;;;6.08;72.84;100655.62;4416568;32;20623;-74
2021/01/08 02:33:28;;;;;;;20.52;9.02;;;;;;;6.10;72.45;100648.41;4404145;32;20022;-75
2021/01/08 02:35:54;;;;;;;17.23;8.52;;;;;;;6.14;73.04;100649.19;4406910;32;20113;-75
2021/01/08 02:38:21;;;;;;;16.17;7.97;;;;;;;6.12;72.34;100656.41;4414535;32;20027;-76
2021/01/08 02:40:49;;;;;;;18.75;8.57;;;;;;;6.19;72.90;100649.97;4407961;32;20049;-77
2021/01/08 02:43:21;;;;;;;14.87;7.75;;;;;;;6.28;72.60;100659.47;4402781;32;20374;-75
2021/01/08 02:45:47;;;;;;;14.63;7.30;;;;;;;6.17;71.44;100647.59;4413507;32;20018;-77
2021/01/08 02:48:13;;;;;;;14.23;7.37;;;;;;;6.26;72.25;100650.69;4407683;32;20080;-76
2021/01/08 02:50:38;;;;;;;12.20;6.93;;;;;;;6.26;72.10;100656.28;4418393;32;20038;-77
2021/01/08 02:53:12;;;;;;;14.07;6.87;;;;;;;6.33;72.14;100649.84;4417795;32;20426;-76
2021/01/08 02:55:41;;;;;;;13.65;7.07;;;;;;;6.25;72.29;100643.50;4415993;32;20335;-75
2021/01/08 02:58:07;;;;;;;12.40;6.97;;;;;;;6.28;72.19;100648.28;4414127;32;20045;-77
2021/01/08 03:00:33;;;;;;;13.55;6.87;;;;;;;6.26;71.39;100649.91;4407892;32;20105;-75
2021/01/08 03:03:01;;;;;;;14.55;7.40;;;;;;;6.22;71.85;100649.91;4410782;32;20038;-75
2021/01/08 03:05:29;;;;;;;14.25;6.47;;;;;;;6.31;72.01;100653.03;4411098;32;20076;-75
2021/01/08 03:07:55;;;;;;;12.63;6.85;;;;;;;6.33;71.68;100655.44;4409753;32;20018;-77
2021/01/08 03:10:23;;;;;;;15.40;7.32;;;;;;;6.42;71.84;100648.16;4410845;32;20042;-75
2021/01/08 03:12:55;;;;;;;11.20;6.60;;;;;;;6.47;71.30;100650.50;4408522;32;20046;-76
2021/01/08 03:15:21;;;;;;;12.82;7.12;;;;;;;6.46;70.90;100653.72;4416088;32;20030;-75
2021/01/08 03:17:47;;;;;;;14.52;7.22;;;;;;;6.46;71.14;100646.13;4415340;32;20052;-75
2021/01/08 03:20:13;;;;;;;14.65;7.47;;;;;;;6.48;71.10;100668.88;4410989;32;20081;-75
2021/01/08 03:22:38;;;;;;;12.48;7.25;;;;;;;6.40;71.66;100663.75;4412247;32;20095;-76
2021/01/08 03:25:04;;;;;;;12.75;7.07;;;;;;;6.24;71.91;100652.31;4417385;32;20058;-75
2021/01/08 03:27:30;;;;;;;14.30;7.10;;;;;;;6.10;72.93;100654.00;4409410;32;20464;-76
2021/01/08 03:29:56;;;;;;;16.75;8.52;;;;;;;6.24;72.66;100658.69;4411921;32;20030;-74
2021/01/08 03:32:22;;;;;;;16.87;7.85;;;;;;;6.26;72.87;100655.50;4408906;32;20104;-76
2021/01/08 03:34:47;;;;;;;15.55;8.27;;;;;;;6.18;73.34;100653.94;4408597;32;20026;-76
2021/01/08 03:37:13;;;;;;;13.65;7.97;;;;;;;6.16;74.45;100642.41;4419228;32;20382;-76
2021/01/08 03:39:39;;;;;;;15.30;8.32;;;;;;;6.17;74.81;100658.75;4411428;32;20026;-76
2021/01/08 03:42:05;;;;;;;17.02;8.65;;;;;;;6.04;75.07;100654.84;4413306;32;20067;-75
2021/01/08 03:44:30;;;;;;;15.18;8.25;;;;;;;6.06;75.49;100653.25;4413382;32;20150;-74
2021/01/08 03:46:56;;;;;;;16.33;7.87;;;;;;;6.01;75.67;100656.47;4414330;32;20403;-77
2021/01/08 03:49:21;;;;;;;18.12;8.25;;;;;;;5.81;75.58;100649.00;4413965;32;20103;-75
2021/01/08 03:51:47;;;;;;;13.77;8.23;;;;;;;5.88;75.81;100649.78;4408657;32;20038;-75
2021/01/08 03:54:13;;;;;;;16.15;7.95;;;;;;;5.72;75.33;100646.66;4409629;32;20477;-76
2021/01/08 03:56:38;;;;;;;14.50;9.10;;;;;;;5.69;75.78;100643.87;4407182;32;20027;-75
2021/01/08 03:59:04;;;;;;;16.25;8.93;;;;;;;5.67;76.36;100640.69;4417664;32;20029;-75
2021/01/08 04:01:30;;;;;;;18.27;9.02;;;;;;;5.77;76.83;100648.22;4414347;32;20083;-75
2021/01/08 04:03:56;;;;;;;16.25;8.68;;;;;;;5.77;76.70;100645.44;4416796;32;20083;-77
2021/01/08 04:06:21;;;;;;;17.27;8.70;;;;;;;5.77;76.81;100646.22;4417364;32;20246;-76
2021/01/08 04:08:47;;;;;;;16.02;8.43;;;;;;;5.70;76.48;100637.09;4413047;32;20057;-75
2021/01/08 04:11:12;;;;;;;13.55;7.90;;;;;;;5.50;76.46;100653.53;4411295;32;20049;-75
2021/01/08 04:13:38;;;;;;;13.30;7.70;;;;;;;5.54;76.46;100647.94;4416387;32;20042;-75
2021/01/08 04:16:04;;;;;;;12.37;7.15;;;;;;;5.64;76.65;100649.88;4411794;32;20450;-77
2021/01/08 04:18:30;;;;;;;11.70;6.87;;;;;;;5.66;76.40;100653.87;4416971;32;20030;-74
2021/01/08 04:20:55;;;;;;;12.20;6.82;;;;;;;5.26;77.29;100648.88;4414231;32;20110;-74
2021/01/08 04:23:21;;;;;;;14.85;8.23;;;;;;;5.50;77.14;100659.12;4416316;32;20079;-76
2021/01/08 04:25:47;;;;;;;13.40;6.93;;;;;;;5.52;77.07;100645.56;4405856;32;20074;-76
2021/01/08 04:28:12;;;;;;;11.80;7.35;;;;;;;5.62;77.01;100646.72;4409601;32;20100;-78
2021/01/08 04:30:38;;;;;;;13.10;6.95;;;;;;;5.70;77.18;100651.84;4417733;32;20042;-77
2021/01/08 04:33:04;;;;;;;12.77;7.53;;;;;;;5.68;76.93;100648.66;4411492;32;20025;-77
2021/01/08 04:35:30;;;;;;;13.52;7.20;;;;;;;5.67;77.10;100649.88;4411638;32;20100;-74
2021/01/08 04:37:55;;;;;;;13.82;6.62;;;;;;;5.71;76.94;100649.88;4408589;32;20038;-78
2021/01/08 04:40:21;;;;;;;11.45;6.62;;;;;;;5.68;76.86;100648.66;4411758;32;20041;-74
2021/01/08 04:42:47;;;;;;;13.38;6.53;;;;;;;5.70;76.62;100653.84;4409930;32;20073;-76
2021/01/08 04:45:13;;;;;;;11.73;6.30;;;;;;;5.63;77.15;100654.69;4408624;32;20452;-76
2021/01/08 04:47:39;;;;;;;12.43;6.22;;;;;;;5.45;77.21;100662.34;4411619;32;20057;-77
2021/01/08 04:50:05;;;;;;;12.40;6.28;;;;;;;5.55;77.72;100652.31;4412054;32;20082;-78
2021/01/08 04:52:33;;;;;;;13.68;6.22;;;;;;;5.43;77.66;100655.59;4401797;32;20083;-78
2021/01/08 04:55:00;;;;;;;12.30;6.45;;;;;;;5.49;77.97;100645.59;4409630;32;20042;-78
2021/01/08 04:57:28;;;;;;;11.43;6.75;;;;;;;5.54;78.23;100651.53;4412081;32;20037;-76
2021/01/08 04:59:53;;;;;;;12.73;6.53;;;;;;;5.55;78.10;100650.34;4412963;32;20094;-76
2021/01/08 05:02:19;;;;;;;12.30;6.50;;;;;;;5.53;78.38;100647.16;4411524;32;20073;-76
2021/01/08 05:04:45;;;;;;;8.90;5.87;;;;;;;5.54;78.37;100656.31;4415202;32;20109;-75
2021/01/08 05:07:11;;;;;;;9.13;5.45;;;;;;;5.53;78.44;100641.56;4403034;32;20029;-75
2021/01/08 05:09:36;;;;;;;8.90;5.75;;;;;;;5.52;78.65;100653.13;4414939;32;20099;-77
2021/01/08 05:12:02;;;;;;;11.07;6.10;;;;;;;5.53;78.60;100649.16;4403653;32;20084;-76
2021/01/08 05:14:28;;;;;;;9.10;5.60;;;;;;;5.53;78.48;100646.38;4414582;32;20052;-77
2021/01/08 05:16:55;;;;;;;8.80;5.62;;;;;;;5.55;78.90;100641.97;4407870;32;20053;-76
2021/01/08 05:19:24;;;;;;;8.48;5.05;;;;;;;5.58;78.62;100643.94;4411048;32;20025;-76
2021/01/08 05:21:52;;;;;;;8.93;4.68;;;;;;;5.52;78.88;100641.97;4413644;32;20054;-76
2021/01/08 05:24:18;;;;;;;7.93;4.80;;;;;;;5.48;78.45;100642.00;4415917;32;20037;-75
2021/01/08 05:26:43;;;;;;;8.05;4.40;;;;;;;5.45;78.22;100645.62;4412860;32;20094;-75
2021/01/08 05:29:10;;;;;;;8.05;4.68;;;;;;;5.42;78.40;100657.59;4402364;32;20077;-74
2021/01/08 05:31:36;;;;;;;6.78;4.55;;;;;;;5.45;78.41;100653.19;4410306;32;20076;-74
2021/01/08 05:34:04;;;;;;;9.15;5.10;;;;;;;5.49;78.54;100651.97;4416796;32;20339;-76
2021/01/08 05:36:30;;;;;;;7.57;4.50;;;;;;;5.51;78.81;100654.34;4409241;32;20018;-76
2021/01/08 05:38:58;;;;;;;6.90;4.37;;;;;;;5.51;78.58;100652.34;4407286;32;20115;-76
2021/01/08 05:41:29;;;;;;;9.38;5.03;;;;;;;5.44;77.72;100655.19;4411842;32;20038;-77
2021/01/08 05:43:56;;;;;;;9.20;4.70;;;;;;;5.55;78.59;100655.13;4416894;32;20018;-75
2021/01/08 05:46:31;;;;;;;9.25;4.43;;;;;;;5.56;78.33;100657.50;4408294;32;20051;-77
2021/01/08 05:48:58;;;;;;;;;;;;;;;5.53;77.60;100646.38;4416391;32;20053;-76
2021/01/08 05:51:26;;;;;;;6.78;4.37;;;;;;;5.44;77.49;100652.41;4417558;32;19959;-77
2021/01/08 05:53:53;;;;;;;7.00;4.22;;;;;;;5.35;77.61;100645.66;4414617;32;20146;-75
2021/01/08 05:56:20;;;;;;;7.47;4.18;;;;;;;5.39;77.89;100660.37;4414406;32;20030;-77
2021/01/08 05:58:47;;;;;;;9.70;4.28;;;;;;;5.40;78.07;100654.41;4412370;32;20064;-79
2021/01/08 06:01:14;;;;;;;8.02;4.03;;;;;;;5.37;78.16;100660.00;4413614;32;20049;-78
2021/01/08 06:03:41;;;;;;;8.02;3.90;;;;;;;5.33;78.20;100660.00;4411513;32;20048;-77
2021/01/08 06:06:08;;;;;;;6.80;3.72;;;;;;;5.36;77.74;100655.59;4415421;32;20038;-75
2021/01/08 06:11:18;;;;;;;6.00;3.65;;;;;;;5.42;78.60;100659.56;3985947;32;15023624;-75
2021/01/08 06:13:44;;;;;;;6.40;4.07;;;;;;;5.37;78.62;100652.41;4441953;32;20067;-76
2021/01/08 06:16:15;;;;;;;8.45;4.50;;;;;;;5.24;78.61;100654.06;4438902;32;20009;-75
2021/01/08 06:18:41;;;;;;;6.78;3.95;;;;;;;5.27;78.83;100650.47;4442653;32;20048;-75
2021/01/08 06:21:10;;;;;;;7.70;4.12;;;;;;;5.24;78.63;100661.63;4434535;32;20022;-75
2021/01/08 06:26:13;;;;;;;7.28;4.15;;;;;;;5.66;77.83;100669.81;3988489;32;15023333;-75
2021/01/08 06:34:01;;;;;;;9.02;4.40;;;;;;;5.68;78.07;100668.19;3989977;32;15024735;-76
2021/01/08 06:39:06;;;;;;;7.75;4.25;;;;;;;5.80;78.22;100662.16;3959346;32;15723517;-75
2021/01/08 06:41:32;;;;;;;6.90;4.40;;;;;;;5.80;78.22;100662.16;4438307;32;20041;-74
2021/01/08 06:44:01;;;;;;;7.00;4.30;;;;;;;5.45;79.01;100667.13;4440832;32;20052;-77
2021/01/08 06:49:07;;;;;;;6.03;4.20;;;;;;;5.41;78.45;100678.31;3984939;31;15711364;-76
2021/01/08 06:51:35;;;;;;;8.18;4.75;;;;;;;5.39;78.98;100674.34;4451363;32;20336;-76
2021/01/08 06:54:04;;;;;;;9.15;4.35;;;;;;;5.42;79.24;100682.69;4445219;32;20482;-75
2021/01/08 06:56:39;;;;;;;9.68;5.43;;;;;;;5.46;78.69;100677.13;4466605;32;20037;-76
2021/01/08 06:59:07;;;;;;;8.70;4.20;;;;;;;5.47;78.93;100684.28;4467962;32;20128;-75
2021/01/08 07:01:41;;;;;;;8.25;4.35;;;;;;;5.48;79.13;100686.66;4461656;32;20403;-76
2021/01/08 07:04:09;;;;;;;12.77;5.55;;;;;;;5.56;78.97;100687.44;4459228;32;20059;-76
2021/01/08 07:06:36;;;;;;;10.02;4.45;;;;;;;5.50;78.65;100686.25;4479042;32;20033;-75
2021/01/08 07:09:04;;;;;;;9.35;4.43;;;;;;;5.49;79.09;100684.69;4465679;32;20064;-76
2021/01/08 07:11:29;;;;;;;7.15;4.18;;;;;;;5.36;79.45;100689.91;4453190;32;20335;-75
2021/01/08 07:14:14;;;;;;;6.55;4.20;;;;;;;5.43;79.24;100683.50;4439270;32;20453;-76
2021/01/08 07:16:46;;;;;;;16.87;4.40;;;;;;;5.41;79.52;100694.28;4453655;32;20073;-76
2021/01/08 07:19:15;;;;;;;8.02;4.18;;;;;;;5.52;79.91;100692.22;4456225;32;20037;-76
2021/01/08 07:21:43;;;;;;;7.95;3.22;;;;;;;5.47;79.69;100692.66;4472289;32;20101;-75
2021/01/08 07:24:11;;;;;;;10.68;3.90;;;;;;;5.33;79.38;100687.13;4447725;32;20056;-76
2021/01/08 07:26:37;;;;;;;11.45;4.28;;;;;;;5.48;79.22;100695.03;4454693;32;20408;-76
2021/01/08 07:29:05;;;;;;;7.28;4.20;;;;;;;5.49;79.35;100685.44;4454001;32;20041;-76
2021/01/08 07:31:33;;;;;;;9.60;4.25;;;;;;;5.50;79.62;100703.00;4448320;32;20094;-76
2021/01/08 07:34:02;;;;;;;7.68;4.25;;;;;;;5.49;79.54;100685.44;4450215;32;20024;-76
2021/01/08 07:36:29;;;;;;;9.43;4.37;;;;;;;5.52;79.71;100701.37;4441136;32;20416;-75
2021/01/08 07:38:55;;;;;;;11.07;4.57;;;;;;;5.58;79.39;100701.75;4446432;32;20394;-76
2021/01/08 07:41:38;;;;;;;8.30;3.75;;;;;;;5.50;79.28;100698.19;4445056;32;20076;-74
2021/01/08 07:50:17;;;;;;;7.30;3.60;;;;;;;5.53;80.42;100722.50;3985236;32;15025633;-76
2021/01/08 07:52:44;;;;;;;8.85;4.30;;;;;;;5.46;79.94;100721.75;4445164;32;20608;-75
2021/01/08 07:55:13;;;;;;;7.90;3.87;;;;;;;5.57;80.25;100726.09;4438220;32;20150;-75
2021/01/08 08:00:35;;;;;;;10.95;3.87;;;;;;;6.04;78.97;100736.66;4010747;31;15021372;-76
2021/01/08 08:03:01;;;;;;;7.07;3.37;;;;;;;6.04;78.97;100736.66;4471536;32;20067;-76
2021/01/08 08:05:28;;;;;;;11.85;3.70;;;;;;;5.64;79.71;100737.22;4477436;32;20063;-75
2021/01/08 08:07:59;;;;;;;9.82;3.50;;;;;;;5.65;79.84;100733.22;4475859;32;20353;-74
2021/01/08 08:10:26;;;;;;;6.62;3.90;;;;;;;5.72;79.99;100738.81;4472012;32;20044;-76
2021/01/08 08:12:53;;;;;;;14.18;4.18;;;;;;;5.71;79.86;100742.78;4460888;32;20092;-75
2021/01/08 08:15:20;;;;;;;8.70;3.47;;;;;;;5.63;79.23;100754.38;4469093;32;20040;-75
2021/01/08 08:17:46;;;;;;;11.20;4.12;;;;;;;5.58;79.61;100755.59;4463981;32;20049;-75
2021/01/08 08:20:21;;;;;;;7.25;3.95;;;;;;;5.62;79.87;100756.38;4469016;32;20132;-75
2021/01/08 08:22:47;;;;;;;;;;;;;;;5.53;79.74;100758.78;4467133;32;20041;-75
2021/01/08 08:28:00;;;;;;;10.35;4.40;;;;;;;5.49;80.33;100757.25;4003564;31;15018764;-76
2021/01/08 08:30:28;;;;;;;9.65;4.50;;;;;;;5.55;80.39;100773.16;4461127;32;20493;-76
2021/01/08 08:32:55;;;;;;;8.20;4.07;;;;;;;5.57;80.41;100767.16;4456275;32;20102;-75
2021/01/08 08:35:21;;;;;;;6.82;4.00;;;;;;;5.50;80.15;100770.75;4447270;32;20056;-79
2021/01/08 08:37:50;;;;;;;12.45;4.72;;;;;;;5.39;80.26;100775.59;4429475;32;20091;-77
2021/01/08 08:40:16;;;;;;;8.57;4.72;;;;;;;5.31;80.59;100778.81;4426140;32;20067;-76
2021/01/08 08:42:42;;;;;;;8.10;4.57;;;;;;;5.33;81.02;100784.78;4444969;32;20426;-76
2021/01/08 08:45:29;;;;;;;15.48;5.18;;;;;;;5.12;81.52;100791.19;4440649;32;20123;-78
2021/01/08 08:47:56;;;;;;;7.93;4.20;;;;;;;5.17;82.03;100795.56;4439000;32;20053;-75
2021/01/08 08:50:23;;;;;;;9.93;4.20;;;;;;;5.20;81.94;100797.56;4447544;32;20096;-75
2021/01/08 08:52:50;;;;;;;7.00;3.95;;;;;;;5.27;81.59;100795.56;4441560;32;20089;-75
2021/01/08 08:55:32;;;;;;;8.93;4.57;;;;;;;5.27;81.82;100805.91;4443810;32;20077;-74
2021/01/08 09:00:47;;;;;;;9.07;4.00;;;;;;;5.38;81.55;100813.09;3988874;32;15022360;-76
2021/01/08 09:05:52;;;;;;;5.53;3.35;;;;;;;5.80;79.90;100814.97;3985862;32;15024676;-76
2021/01/08 09:11:02;;;;;;;12.00;4.80;;;;;;;5.87;80.06;100835.28;3992888;32;15025920;-77
2021/01/08 09:21:24;;;;;;;10.07;5.22;;;;;;;5.68;79.95;100843.31;3969742;32;15023383;-77
2021/01/08 09:23:53;;;;;;;7.80;4.20;;;;;;;5.68;79.95;100843.31;4429877;32;20050;-75
2021/01/08 09:26:20;;;;;;;7.90;4.28;;;;;;;5.34;80.97;100845.75;4424650;32;20073;-77
2021/01/08 09:28:50;;;;;;;8.25;4.40;;;;;;;5.28;81.10;100846.56;4420331;32;20041;-76
2021/01/08 09:31:17;;;;;;;8.52;4.65;;;;;;;5.27;80.78;100845.78;4418762;32;20492;-74
2021/01/08 09:33:59;;;;;;;8.13;4.25;;;;;;;5.31;80.90;100849.34;4424265;32;20496;-76
2021/01/08 09:36:41;;;;;;;8.20;4.32;;;;;;;5.29;80.54;100848.97;4412351;32;20698;-75
2021/01/08 09:39:09;;;;;;;8.27;4.53;;;;;;;5.27;80.63;100856.12;4413901;32;20041;-75
2021/01/08 09:41:38;;;;;;;10.93;4.72;;;;;;;5.21;80.95;100854.94;4411611;32;20039;-77
2021/01/08 09:44:06;;;;;;;8.70;5.18;;;;;;;5.16;80.91;100855.34;4414112;32;20069;-76
2021/01/08 09:46:32;;;;;;;8.63;5.25;;;;;;;5.22;81.11;100870.50;4413410;32;20030;-74
2021/01/08 09:49:12;;;;;;;8.82;5.45;;;;;;;5.20;80.75;100867.28;4414558;32;20702;-76
2021/01/08 09:51:40;;;;;;;10.98;5.47;;;;;;;5.34;81.14;100879.25;4408116;32;20058;-78
2021/01/08 09:54:06;;;;;;;8.90;5.47;;;;;;;5.18;81.20;100872.47;4415944;32;20041;-75
2021/01/08 09:56:31;;;;;;;9.40;5.95;;;;;;;5.32;81.27;100878.88;4413563;32;20057;-75
2021/01/08 09:59:17;;;;;;;8.82;5.82;;;;;;;5.30;81.25;100881.25;4413365;32;20030;-75
2021/01/08 10:04:36;;;;;;;14.90;6.93;;;;;;;5.37;80.77;100884.03;4010926;31;15019287;-75
2021/01/08 10:07:04;;;;;;;10.68;6.37;;;;;;;5.34;81.96;100879.25;4471257;32;20169;-77
2021/01/08 10:09:51;;;;;;;15.70;7.05;;;;;;;5.35;81.86;100892.00;4472685;32;20049;-75
2021/01/08 10:12:19;;;;;;;14.55;7.43;;;;;;;5.47;82.15;100897.19;4470127;32;20066;-74
2021/01/08 10:14:45;;;;;;;11.65;7.28;;;;;;;5.64;82.18;100896.34;4466425;32;20076;-74
2021/01/08 10:17:16;;;;;;;12.82;7.15;;;;;;;5.64;81.92;100899.16;4467956;32;20454;-78
2021/01/08 10:19:44;;;;;;;16.23;8.15;;;;;;;5.69;81.74;100895.97;4464239;32;20052;-76
2021/01/08 10:22:10;;;;;;;14.18;8.10;;;;;;;5.74;81.26;100894.75;4449787;32;20053;-76
2021/01/08 10:24:37;;;;;;;18.20;7.65;;;;;;;5.78;80.91;100903.91;4462583;32;20150;-76
2021/01/08 10:27:04;;;;;;;13.82;7.68;;;;;;;5.84;80.97;100903.16;4463177;32;20052;-77
2021/01/08 10:32:12;;;;;;;17.95;8.80;;;;;;;6.25;79.18;100902.59;4004374;31;15015904;-77
2021/01/08 10:34:42;;;;;;;14.68;8.00;;;;;;;6.25;79.18;100902.59;4473164;32;20439;-75
2021/01/08 10:37:23;;;;;;;16.60;8.38;;;;;;;5.92;80.12;100907.50;4469087;32;20388;-78
2021/01/08 10:39:48;;;;;;;15.50;7.70;;;;;;;5.73;79.99;100907.91;4464366;32;20068;-79
2021/01/08 10:42:16;;;;;;;15.23;8.98;;;;;;;5.71;80.24;100927.06;4461863;32;20045;-77
2021/01/08 10:44:42;;;;;;;15.75;8.93;;;;;;;5.71;80.88;100927.06;4466437;32;20036;-81
2021/01/08 10:47:08;;;;;;;13.02;7.75;;;;;;;5.77;81.14;100928.25;4471418;32;20111;-79
2021/01/08 10:49:33;;;;;;;13.90;8.48;;;;;;;5.77;80.06;100925.44;4463901;32;20106;-76
2021/01/08 10:51:59;;;;;;;15.10;7.82;;;;;;;5.77;80.56;100927.47;4457434;32;20093;-75
2021/01/08 10:54:25;;;;;;;13.10;7.90;;;;;;;5.78;80.74;100929.84;4466835;32;20071;-76
2021/01/08 10:56:50;;;;;;;21.15;10.15;;;;;;;5.89;80.62;100935.41;4449168;32;20724;-76
2021/01/08 10:59:16;;;;;;;17.30;10.07;;;;;;;5.89;80.55;100933.44;4458131;32;20059;-77
2021/01/08 11:01:44;;;;;;;15.77;9.23;;;;;;;5.86;79.98;100945.41;4472052;32;20041;-79
2021/01/08 11:04:11;;;;;;;16.85;9.93;;;;;;;5.74;79.35;100939.44;4464666;32;20045;-75
2021/01/08 11:06:40;;;;;;;21.73;10.85;;;;;;;5.66;79.99;100938.66;4471015;32;20057;-76
2021/01/08 11:09:06;;;;;;;18.02;10.52;;;;;;;5.72;80.36;100945.41;4467751;32;20016;-76
2021/01/08 11:11:33;;;;;;;23.50;11.75;;;;;;;5.80;80.46;100937.84;4447988;32;20075;-77
2021/01/08 11:13:59;;;;;;;28.42;14.32;;;;;;;5.78;80.46;100962.56;4477087;32;20076;-76
2021/01/08 11:16:25;;;;;;;21.12;11.07;;;;;;;5.76;80.58;100949.00;4464782;32;20394;-77
2021/01/08 11:18:51;;;;;;;23.52;11.73;;;;;;;5.77;80.31;100956.16;4465679;32;20040;-77
2021/01/08 11:21:19;;;;;;;20.98;11.25;;;;;;;5.82;80.25;100947.41;4474364;32;20097;-77
2021/01/08 11:23:45;;;;;;;19.50;11.38;;;;;;;5.83;80.28;100943.41;4465267;32;20467;-76
2021/01/08 11:26:11;;;;;;;22.35;12.40;;;;;;;5.91;80.26;100952.59;4462314;32;20125;-76
2021/01/08 11:28:37;;;;;;;23.48;11.75;;;;;;;5.94;79.94;100946.19;4458963;32;20454;-77
2021/01/08 11:31:03;;;;;;;27.05;12.68;;;;;;;6.00;79.69;100950.97;4458113;32;20398;-81
2021/01/08 11:33:29;;;;;;;23.17;11.98;;;;;;;5.97;79.36;100962.97;4461198;32;20139;-76
2021/01/08 11:35:55;;;;;;;23.10;12.88;;;;;;;5.83;79.07;100956.59;4472591;32;20032;-75
2021/01/08 11:38:21;;;;;;;24.30;11.60;;;;;;;5.91;79.87;100958.97;4474978;32;20100;-77
2021/01/08 11:40:46;;;;;;;20.92;12.05;;;;;;;5.92;79.65;100959.75;4468034;32;20081;-77
2021/01/08 11:43:12;;;;;;;20.15;11.25;;;;;;;5.98;79.47;100955.34;4451495;32;20037;-75
2021/01/08 11:45:38;;;;;;;22.95;13.80;;;;;;;5.92;79.06;100954.97;4458248;32;20055;-80
2021/01/08 11:48:04;;;;;;;22.10;12.30;;;;;;;5.97;79.00;100962.16;4456277;32;20040;-76
2021/01/08 11:50:30;;;;;;;29.95;13.90;;;;;;;5.99;79.38;100957.75;4451362;32;20049;-78
2021/01/08 11:52:56;;;;;;;23.52;12.30;;;;;;;6.05;79.19;100960.94;4442298;32;20072;-77
2021/01/08 11:55:21;;;;;;;22.60;12.15;;;;;;;6.08;79.06;100949.75;4452356;32;20395;-76
2021/01/08 11:57:47;;;;;;;21.90;12.32;;;;;;;6.02;78.29;100954.16;4460713;32;20041;-78
2021/01/08 12:00:13;;;;;;;25.98;13.00;;;;;;;5.95;78.51;100958.94;4462833;32;20485;-77
2021/01/08 12:02:39;;;;;;;24.95;12.75;;;;;;;6.06;78.58;100951.34;4453470;32;20080;-76
2021/01/08 12:05:05;;;;;;;31.02;13.07;;;;;;;6.03;78.42;100963.34;4459943;32;20443;-77
2021/01/08 12:07:33;;;;;;;24.67;12.45;;;;;;;6.04;78.47;100964.91;4454810;32;20080;-77
2021/01/08 12:09:59;;;;;;;25.30;11.68;;;;;;;5.98;78.21;100967.34;4457781;32;20041;-75
2021/01/08 12:12:24;;;;;;;22.87;11.80;;;;;;;6.02;78.39;100959.75;4453449;32;20037;-75
2021/01/08 12:14:50;;;;;;;24.10;13.15;;;;;;;6.05;78.23;100969.34;4460834;32;20466;-76